SAS313 ENHD-ENGM
Flight info
| Callsign | SAS313 |
|---|---|
| Flight time | 0h 38m |
| Altitude | 31000 |
| Route | ODINU DCT BOBGA DCT ADOPI |
| Aircraft | A320/M-SDE3FGHIJ1RWXYZ/ALB1 |
Departure
| Time | 2026-04-19 06:03 |
|---|---|
| Airport | Haugesund Airport, Karmøy (ENHD) |
Arrival
| Time | 2026-04-19 06:41 |
|---|---|
| Airport | Oslo-Gardermoen International Airport (ENGM) |
| Time | Latitude | Longitude | Altitude | Speed | Heading |
|---|---|---|---|---|---|
| 2026-04-19 05:47 | 59.34424 | 5.21614 | 88 ft | 0 kts | 45° |
| 2026-04-19 05:55 | 59.34423 | 5.21613 | 87 ft | 2 kts | 45° |
| 2026-04-19 05:55 | 59.34405 | 5.21581 | 90 ft | 4 kts | 30° |
| 2026-04-19 05:55 | 59.34381 | 5.21564 | 91 ft | 4 kts | 354° |
| 2026-04-19 05:56 | 59.34362 | 5.21578 | 89 ft | 0 kts | 314° |
| 2026-04-19 05:58 | 59.34365 | 5.21572 | 89 ft | 2 kts | 314° |
| 2026-04-19 05:58 | 59.34381 | 5.21540 | 92 ft | 5 kts | 314° |
| 2026-04-19 05:58 | 59.34411 | 5.21479 | 87 ft | 8 kts | 314° |
| 2026-04-19 05:59 | 59.34390 | 5.21388 | 89 ft | 9 kts | 226° |
| 2026-04-19 05:59 | 59.34337 | 5.21287 | 88 ft | 13 kts | 234° |
| 2026-04-19 05:59 | 59.34385 | 5.21121 | 85 ft | 18 kts | 314° |
| 2026-04-19 05:59 | 59.34483 | 5.20925 | 83 ft | 22 kts | 314° |
| 2026-04-19 06:00 | 59.34600 | 5.20692 | 82 ft | 25 kts | 315° |
| 2026-04-19 06:00 | 59.34726 | 5.20436 | 82 ft | 28 kts | 314° |
| 2026-04-19 06:00 | 59.34849 | 5.20192 | 71 ft | 21 kts | 314° |
| 2026-04-19 06:00 | 59.34959 | 5.19972 | 73 ft | 21 kts | 313° |
| 2026-04-19 06:01 | 59.35032 | 5.19843 | 69 ft | 12 kts | 335° |
| 2026-04-19 06:01 | 59.35064 | 5.19787 | 65 ft | 5 kts | 234° |
| 2026-04-19 06:01 | 59.35043 | 5.19805 | 66 ft | 0 kts | 135° |
| 2026-04-19 06:02 | 59.34996 | 5.19897 | 68 ft | 39 kts | 135° |
| 2026-04-19 06:02 | 59.34629 | 5.20633 | 80 ft | 108 kts | 134° |
| 2026-04-19 06:02 | 59.33964 | 5.21958 | 120 ft | 160 kts | 135° |
| 2026-04-19 06:03 | 59.33194 | 5.23504 | 842 ft | 157 kts | 135° |
| 2026-04-19 06:03 | 59.32426 | 5.25039 | 1569 ft | 160 kts | 135° |
| 2026-04-19 06:03 | 59.31597 | 5.26692 | 1900 ft | 181 kts | 135° |
| 2026-04-19 06:03 | 59.30660 | 5.28564 | 2190 ft | 205 kts | 135° |
| 2026-04-19 06:04 | 59.29700 | 5.30772 | 2687 ft | 222 kts | 117° |
| 2026-04-19 06:04 | 59.29461 | 5.33841 | 3105 ft | 244 kts | 76° |
| 2026-04-19 06:04 | 59.30315 | 5.36763 | 3712 ft | 257 kts | 43° |
| 2026-04-19 06:04 | 59.31592 | 5.39258 | 4642 ft | 262 kts | 51° |
| 2026-04-19 06:05 | 59.32387 | 5.42488 | 5567 ft | 267 kts | 70° |
| 2026-04-19 06:05 | 59.32997 | 5.45929 | 6544 ft | 269 kts | 70° |
| 2026-04-19 06:05 | 59.33634 | 5.49394 | 7442 ft | 272 kts | 69° |
| 2026-04-19 06:05 | 59.34276 | 5.52850 | 8318 ft | 275 kts | 69° |
| 2026-04-19 06:06 | 59.34944 | 5.56444 | 9214 ft | 279 kts | 69° |
| 2026-04-19 06:06 | 59.35602 | 5.59996 | 10069 ft | 283 kts | 69° |
| 2026-04-19 06:06 | 59.36286 | 5.63714 | 10521 ft | 301 kts | 70° |
| 2026-04-19 06:06 | 59.37027 | 5.67754 | 10913 ft | 318 kts | 70° |
| 2026-04-19 06:07 | 59.37769 | 5.71818 | 11601 ft | 323 kts | 70° |
| 2026-04-19 06:07 | 59.38528 | 5.75988 | 12379 ft | 326 kts | 70° |
| 2026-04-19 06:07 | 59.39289 | 5.80198 | 13165 ft | 329 kts | 71° |
| 2026-04-19 06:07 | 59.40055 | 5.84445 | 13935 ft | 332 kts | 71° |
| 2026-04-19 06:08 | 59.40827 | 5.88726 | 14623 ft | 334 kts | 71° |
| 2026-04-19 06:08 | 59.41604 | 5.93046 | 15301 ft | 337 kts | 71° |
| 2026-04-19 06:08 | 59.42386 | 5.97398 | 15970 ft | 340 kts | 71° |
| 2026-04-19 06:08 | 59.43191 | 6.01777 | 16631 ft | 343 kts | 68° |
| 2026-04-19 06:09 | 59.44310 | 6.05940 | 17292 ft | 347 kts | 57° |
| 2026-04-19 06:09 | 59.45820 | 6.09674 | 17963 ft | 351 kts | 50° |
| 2026-04-19 06:09 | 59.47434 | 6.13292 | 18635 ft | 352 kts | 52° |
| 2026-04-19 06:09 | 59.49049 | 6.16923 | 19285 ft | 353 kts | 52° |
| 2026-04-19 06:10 | 59.50668 | 6.20583 | 19917 ft | 356 kts | 53° |
| 2026-04-19 06:10 | 59.52293 | 6.24273 | 20554 ft | 358 kts | 53° |
| 2026-04-19 06:10 | 59.53929 | 6.28004 | 21172 ft | 361 kts | 53° |
| 2026-04-19 06:10 | 59.55576 | 6.31770 | 21725 ft | 364 kts | 54° |
| 2026-04-19 06:11 | 59.57237 | 6.35569 | 22254 ft | 367 kts | 54° |
| 2026-04-19 06:11 | 59.58907 | 6.39396 | 22804 ft | 369 kts | 54° |
| 2026-04-19 06:11 | 59.60588 | 6.43251 | 23379 ft | 372 kts | 54° |
| 2026-04-19 06:12 | 59.63997 | 6.51080 | 24330 ft | 379 kts | 54° |
| 2026-04-19 06:12 | 59.65721 | 6.55046 | 24738 ft | 383 kts | 55° |
| 2026-04-19 06:12 | 59.67449 | 6.59084 | 25127 ft | 386 kts | 58° |
| 2026-04-19 06:12 | 59.68461 | 6.61975 | 25388 ft | 384 kts | 64° |
| 2026-04-19 06:13 | 59.69685 | 6.66650 | 25787 ft | 385 kts | 69° |
| 2026-04-19 06:13 | 59.70851 | 6.71448 | 26204 ft | 388 kts | 69° |
| 2026-04-19 06:13 | 59.72029 | 6.76288 | 26579 ft | 391 kts | 69° |
| 2026-04-19 06:13 | 59.73218 | 6.81168 | 26959 ft | 395 kts | 69° |
| 2026-04-19 06:14 | 59.74418 | 6.86084 | 27321 ft | 398 kts | 69° |
| 2026-04-19 06:14 | 59.75628 | 6.91041 | 27682 ft | 401 kts | 69° |
| 2026-04-19 06:14 | 59.76846 | 6.96043 | 28050 ft | 404 kts | 69° |
| 2026-04-19 06:14 | 59.78070 | 7.01084 | 28416 ft | 407 kts | 69° |
| 2026-04-19 06:15 | 59.79303 | 7.06171 | 28785 ft | 410 kts | 69° |
| 2026-04-19 06:15 | 59.80540 | 7.11301 | 29171 ft | 414 kts | 69° |
| 2026-04-19 06:15 | 59.81782 | 7.16478 | 29512 ft | 417 kts | 69° |
| 2026-04-19 06:15 | 59.83030 | 7.21701 | 29860 ft | 420 kts | 69° |
| 2026-04-19 06:16 | 59.84284 | 7.26969 | 30198 ft | 423 kts | 69° |
| 2026-04-19 06:16 | 59.85548 | 7.32290 | 30444 ft | 428 kts | 69° |
| 2026-04-19 06:16 | 59.86824 | 7.37658 | 30725 ft | 431 kts | 69° |
| 2026-04-19 06:16 | 59.88112 | 7.43075 | 31006 ft | 434 kts | 68° |
| 2026-04-19 06:17 | 59.89778 | 7.54409 | 31097 ft | 425 kts | 89° |
| 2026-04-19 06:17 | 59.90210 | 7.66157 | 31093 ft | 425 kts | 89° |
| 2026-04-19 06:18 | 59.90600 | 7.77909 | 31099 ft | 425 kts | 89° |
| 2026-04-19 06:18 | 59.90981 | 7.89669 | 31090 ft | 425 kts | 89° |
| 2026-04-19 06:19 | 59.91365 | 8.01422 | 31086 ft | 425 kts | 90° |
| 2026-04-19 06:19 | 59.91738 | 8.13158 | 30719 ft | 421 kts | 90° |
| 2026-04-19 06:20 | 59.91919 | 8.18959 | 30443 ft | 418 kts | 90° |
| 2026-04-19 06:20 | 59.92096 | 8.24698 | 30129 ft | 411 kts | 90° |
| 2026-04-19 06:20 | 59.92268 | 8.30355 | 29549 ft | 406 kts | 90° |
| 2026-04-19 06:20 | 59.92433 | 8.35926 | 29030 ft | 400 kts | 91° |
| 2026-04-19 06:21 | 59.92592 | 8.41414 | 28516 ft | 394 kts | 91° |
| 2026-04-19 06:21 | 59.92747 | 8.46836 | 28006 ft | 390 kts | 91° |
| 2026-04-19 06:21 | 59.92899 | 8.52200 | 27507 ft | 385 kts | 91° |
| 2026-04-19 06:21 | 59.93051 | 8.57511 | 27009 ft | 382 kts | 91° |
| 2026-04-19 06:22 | 59.93196 | 8.62766 | 26490 ft | 378 kts | 91° |
| 2026-04-19 06:22 | 59.93339 | 8.67976 | 26043 ft | 375 kts | 91° |
| 2026-04-19 06:22 | 59.93479 | 8.73147 | 25568 ft | 372 kts | 91° |
| 2026-04-19 06:22 | 59.93615 | 8.78276 | 25108 ft | 370 kts | 91° |
| 2026-04-19 06:23 | 59.93748 | 8.83398 | 24661 ft | 369 kts | 91° |
| 2026-04-19 06:23 | 59.93878 | 8.88486 | 24226 ft | 367 kts | 91° |
| 2026-04-19 06:23 | 59.94004 | 8.93553 | 23796 ft | 365 kts | 91° |
| 2026-04-19 06:23 | 59.94126 | 8.98535 | 23330 ft | 363 kts | 91° |
| 2026-04-19 06:24 | 59.94250 | 9.03609 | 22896 ft | 360 kts | 91° |
| 2026-04-19 06:24 | 59.94372 | 9.08565 | 22477 ft | 356 kts | 91° |
| 2026-04-19 06:24 | 59.94494 | 9.13475 | 22052 ft | 352 kts | 91° |
| 2026-04-19 06:24 | 59.94609 | 9.18263 | 21641 ft | 348 kts | 91° |
| 2026-04-19 06:25 | 59.94721 | 9.23122 | 21206 ft | 345 kts | 91° |
| 2026-04-19 06:25 | 59.94826 | 9.27807 | 20785 ft | 341 kts | 91° |
| 2026-04-19 06:25 | 59.94930 | 9.32504 | 20345 ft | 337 kts | 91° |
| 2026-04-19 06:25 | 59.95031 | 9.37234 | 19909 ft | 345 kts | 91° |
| 2026-04-19 06:26 | 59.95128 | 9.42031 | 19459 ft | 347 kts | 91° |
| 2026-04-19 06:26 | 59.95227 | 9.46827 | 18983 ft | 345 kts | 91° |
| 2026-04-19 06:26 | 59.95327 | 9.51603 | 18530 ft | 344 kts | 90° |
| 2026-04-19 06:26 | 59.95427 | 9.56348 | 18020 ft | 342 kts | 90° |
| 2026-04-19 06:27 | 59.95526 | 9.61066 | 17551 ft | 339 kts | 90° |
| 2026-04-19 06:27 | 59.95622 | 9.65756 | 17084 ft | 337 kts | 90° |
| 2026-04-19 06:27 | 59.95713 | 9.70419 | 16619 ft | 335 kts | 90° |
| 2026-04-19 06:27 | 59.95801 | 9.75062 | 16141 ft | 334 kts | 90° |
| 2026-04-19 06:28 | 59.95887 | 9.79702 | 15557 ft | 335 kts | 90° |
| 2026-04-19 06:28 | 59.95970 | 9.84335 | 15093 ft | 333 kts | 90° |
| 2026-04-19 06:28 | 59.96049 | 9.88927 | 14628 ft | 331 kts | 90° |
| 2026-04-19 06:28 | 59.96127 | 9.93514 | 14163 ft | 330 kts | 90° |
| 2026-04-19 06:29 | 59.96207 | 9.98083 | 13658 ft | 328 kts | 90° |
| 2026-04-19 06:29 | 59.96288 | 10.02614 | 13185 ft | 325 kts | 90° |
| 2026-04-19 06:29 | 59.96366 | 10.07101 | 12733 ft | 322 kts | 90° |
| 2026-04-19 06:29 | 59.96442 | 10.11559 | 12103 ft | 324 kts | 90° |
| 2026-04-19 06:30 | 59.96514 | 10.16041 | 11560 ft | 318 kts | 91° |
| 2026-04-19 06:30 | 59.96582 | 10.20404 | 11030 ft | 312 kts | 91° |
| 2026-04-19 06:30 | 59.96647 | 10.24701 | 10443 ft | 308 kts | 91° |
| 2026-04-19 06:30 | 59.96709 | 10.28919 | 10147 ft | 298 kts | 91° |
| 2026-04-19 06:31 | 59.96768 | 10.32926 | 9993 ft | 281 kts | 92° |
| 2026-04-19 06:31 | 59.96824 | 10.36778 | 9581 ft | 275 kts | 92° |
| 2026-04-19 06:31 | 59.96874 | 10.40551 | 9201 ft | 270 kts | 92° |
| 2026-04-19 06:31 | 59.96925 | 10.44311 | 8772 ft | 271 kts | 92° |
| 2026-04-19 06:32 | 59.96975 | 10.48065 | 8368 ft | 270 kts | 92° |
| 2026-04-19 06:32 | 59.97024 | 10.51775 | 7971 ft | 267 kts | 92° |
| 2026-04-19 06:32 | 59.97072 | 10.55470 | 7582 ft | 264 kts | 92° |
| 2026-04-19 06:32 | 59.97116 | 10.59150 | 7109 ft | 266 kts | 92° |
| 2026-04-19 06:33 | 59.97158 | 10.62719 | 6735 ft | 258 kts | 92° |
| 2026-04-19 06:33 | 59.97203 | 10.66226 | 6468 ft | 246 kts | 92° |
| 2026-04-19 06:33 | 59.97243 | 10.69576 | 6210 ft | 237 kts | 92° |
| 2026-04-19 06:33 | 59.97279 | 10.72815 | 5946 ft | 229 kts | 92° |
| 2026-04-19 06:34 | 59.97313 | 10.75942 | 5686 ft | 221 kts | 92° |
| 2026-04-19 06:34 | 59.97347 | 10.78982 | 5432 ft | 218 kts | 92° |
| 2026-04-19 06:34 | 59.97413 | 10.81975 | 5205 ft | 213 kts | 89° |
| 2026-04-19 06:34 | 59.97550 | 10.84869 | 5030 ft | 206 kts | 88° |
| 2026-04-19 06:35 | 59.97704 | 10.87681 | 4848 ft | 202 kts | 88° |
| 2026-04-19 06:35 | 59.97857 | 10.90438 | 4660 ft | 197 kts | 88° |
| 2026-04-19 06:35 | 59.98006 | 10.93140 | 4497 ft | 194 kts | 88° |
| 2026-04-19 06:35 | 59.98149 | 10.95761 | 4372 ft | 186 kts | 88° |
| 2026-04-19 06:36 | 59.98534 | 10.98243 | 4216 ft | 192 kts | 65° |
| 2026-04-19 06:36 | 59.99476 | 11.00191 | 4081 ft | 202 kts | 37° |
| 2026-04-19 06:36 | 60.00798 | 11.01181 | 3978 ft | 200 kts | 23° |
| 2026-04-19 06:36 | 60.02144 | 11.01933 | 3869 ft | 201 kts | 24° |
| 2026-04-19 06:37 | 60.03487 | 11.02690 | 3640 ft | 199 kts | 24° |
| 2026-04-19 06:37 | 60.04815 | 11.03447 | 3380 ft | 198 kts | 24° |
| 2026-04-19 06:37 | 60.06132 | 11.04201 | 3109 ft | 196 kts | 24° |
| 2026-04-19 06:37 | 60.07431 | 11.04944 | 2834 ft | 192 kts | 24° |
| 2026-04-19 06:38 | 60.08710 | 11.05677 | 2575 ft | 188 kts | 24° |
| 2026-04-19 06:38 | 60.09913 | 11.06362 | 2324 ft | 173 kts | 23° |
| 2026-04-19 06:38 | 60.11026 | 11.07000 | 2090 ft | 160 kts | 24° |
| 2026-04-19 06:38 | 60.12056 | 11.07591 | 1878 ft | 149 kts | 23° |
| 2026-04-19 06:39 | 60.13035 | 11.08157 | 1673 ft | 145 kts | 22° |
| 2026-04-19 06:39 | 60.14000 | 11.08715 | 1461 ft | 144 kts | 21° |
| 2026-04-19 06:39 | 60.14957 | 11.09267 | 1253 ft | 142 kts | 20° |
| 2026-04-19 06:39 | 60.15904 | 11.09813 | 1067 ft | 142 kts | 19° |
| 2026-04-19 06:40 | 60.16850 | 11.10359 | 874 ft | 141 kts | 20° |
| 2026-04-19 06:40 | 60.17780 | 11.10894 | 694 ft | 137 kts | 19° |
| 2026-04-19 06:40 | 60.18568 | 11.11353 | 683 ft | 94 kts | 15° |
| 2026-04-19 06:40 | 60.19038 | 11.11622 | 684 ft | 50 kts | 15° |
| 2026-04-19 06:41 | 60.19290 | 11.11687 | 683 ft | 22 kts | 351° |
| 2026-04-19 06:41 | 60.19374 | 11.11544 | 681 ft | 10 kts | 289° |
| 2026-04-19 06:41 | 60.19377 | 11.11524 | 681 ft | 2 kts | 287° |
| 2026-04-19 06:41 | 60.19398 | 11.11464 | 682 ft | 8 kts | 326° |
| 2026-04-19 06:42 | 60.19467 | 11.11478 | 682 ft | 13 kts | 15° |
| 2026-04-19 06:42 | 60.19559 | 11.11530 | 683 ft | 15 kts | 16° |
| 2026-04-19 06:42 | 60.19656 | 11.11587 | 684 ft | 14 kts | 16° |
| 2026-04-19 06:42 | 60.19736 | 11.11529 | 683 ft | 15 kts | 294° |
| 2026-04-19 06:43 | 60.19779 | 11.11344 | 682 ft | 15 kts | 294° |
| 2026-04-19 06:43 | 60.19810 | 11.11142 | 680 ft | 15 kts | 286° |
| 2026-04-19 06:43 | 60.19838 | 11.10945 | 683 ft | 14 kts | 286° |
| 2026-04-19 06:43 | 60.19865 | 11.10756 | 684 ft | 14 kts | 286° |
| 2026-04-19 06:44 | 60.19891 | 11.10572 | 684 ft | 13 kts | 286° |
| 2026-04-19 06:44 | 60.19916 | 11.10398 | 683 ft | 12 kts | 286° |
| 2026-04-19 06:44 | 60.19940 | 11.10235 | 681 ft | 12 kts | 286° |
| 2026-04-19 06:44 | 60.19962 | 11.10080 | 685 ft | 11 kts | 286° |
| 2026-04-19 06:45 | 60.19964 | 11.09927 | 682 ft | 12 kts | 230° |
| 2026-04-19 06:45 | 60.19880 | 11.09865 | 683 ft | 13 kts | 196° |
| 2026-04-19 06:45 | 60.19799 | 11.09819 | 683 ft | 11 kts | 195° |
| 2026-04-19 06:45 | 60.19725 | 11.09776 | 685 ft | 11 kts | 196° |
| 2026-04-19 06:46 | 60.19656 | 11.09736 | 684 ft | 10 kts | 196° |
| 2026-04-19 06:46 | 60.19592 | 11.09690 | 685 ft | 9 kts | 199° |
| 2026-04-19 06:46 | 60.19541 | 11.09660 | 685 ft | 6 kts | 195° |
| 2026-04-19 06:46 | 60.19529 | 11.09653 | 685 ft | 0 kts | 195° |